General Mitchell International Airport
KMKE : now visible

Airfield :











YOU CAN JOIN US ON...

 
LOGIN :

Register | Disclaimer

   EN    FR    IT 

 









Legend :    VFR   Marginal VFR   IFR   Intensive IFR   Very Intensive IFR
Visi :
Ceiling :
>= 8 km
>= 3000ft
5 to 8 km
1000 to 3000 ft
1500m to 5 km
500 to 1000 ft
800 to 1500m
200 to 500 ft
< 800m
< 200 ft
Symbols :   Thunderstorms  Fog  Heavy snow  Heavy precipitations  Wind > 20 kt






- Airport Elevation : 723 ft
- IATA code : MKE


KMKE - General Mitchell International

CURRENT METAR :
  • 220052Z 15007KT 5SM -SN SCT014 BKN020 01/M02 A3007 RMK AO2 SLP191 P0001 T00111017

EXPIRED METARs :
  • 220036Z 16006KT 3/4SM R01L/3000VP6000FT -SN SCT008 BKN014 OVC019 01/M02 A3007 RMK AO2 P0001 T00111017
  • 220025Z 15006KT 1 3/4SM -SN SCT014 BKN020 OVC034 02/M02 A3007 RMK AO2 TWR VIS 3 P0000 T00171022
  • 212352Z 13007KT 10SM -SN FEW028 SCT043 BKN070 02/M03 A3007 RMK AO2 SNB52 SLP191 P0000 60001 T00221033 10033 20011 57008
  • 212252Z 10006KT 10SM FEW010 FEW023 SCT070 03/M03 A3008 RMK AO2 SLP194 T00281028

TAF KMKE
Valid from the 22 at 00:00 until the 23 at 06:00 UTC


212320Z 2200/2306 10006KT P6SM VCSH SCT015 BKN060
TEMPO 2200/2201 4SM -SHSN BKN015
FM220300 22003KT P6SM BKN090
FM221200 28008KT P6SM SKC
FM221800 24012KT P6SM SCT100
KZAU FIR / North America



MET'MAP, your aeronautical weather chart ! - Copyright ORBIFLY December 2007 - Disclaimer

ORBIFLY MET'MAP TEAM :

Programming & Development : Alexandra Zaïnal
Concept & original design : Baudouin d'Aumeries
Assistance for programming : Marc-Olivier Méhu
Technical & hardware support : Manuel Goepfert

Contact : metmap@orbifly.com




SOURCES & CREDITS :

   NOAA       Earth
Advisory